sensor_id;sensor_type;location;lat;lon;timestamp;temperature;humidity
30381;DHT22;17169;50.966;11.038;2022-09-09T00:02:54;17.20;99.90
30381;DHT22;17169;50.966;11.038;2022-09-09T00:06:06;17.20;99.90
30381;DHT22;17169;50.966;11.038;2022-09-09T00:09:12;17.20;99.90
30381;DHT22;17169;50.966;11.038;2022-09-09T00:12:20;17.20;99.90
30381;DHT22;17169;50.966;11.038;2022-09-09T00:15:27;17.20;99.90
30381;DHT22;17169;50.966;11.038;2022-09-09T00:18:44;17.20;99.90
30381;DHT22;17169;50.966;11.038;2022-09-09T00:21:58;17.20;99.90
30381;DHT22;17169;50.966;11.038;2022-09-09T00:25:10;17.20;99.90
30381;DHT22;17169;50.966;11.038;2022-09-09T00:28:18;17.20;99.90
30381;DHT22;17169;50.966;11.038;2022-09-09T00:31:25;17.20;99.90
30381;DHT22;17169;50.966;11.038;2022-09-09T00:34:28;17.20;99.90
30381;DHT22;17169;50.966;11.038;2022-09-09T00:37:33;17.20;99.90
30381;DHT22;17169;50.966;11.038;2022-09-09T00:40:39;17.20;99.90
30381;DHT22;17169;50.966;11.038;2022-09-09T00:43:49;17.20;99.90
30381;DHT22;17169;50.966;11.038;2022-09-09T00:47:09;17.20;99.90
30381;DHT22;17169;50.966;11.038;2022-09-09T00:50:35;17.20;99.90
30381;DHT22;17169;50.966;11.038;2022-09-09T00:54:01;17.20;99.90
30381;DHT22;17169;50.966;11.038;2022-09-09T00:57:12;17.20;99.90
30381;DHT22;17169;50.966;11.038;2022-09-09T01:00:22;17.20;99.90
30381;DHT22;17169;50.966;11.038;2022-09-09T01:03:33;17.20;99.90
30381;DHT22;17169;50.966;11.038;2022-09-09T01:06:36;17.20;99.90
30381;DHT22;17169;50.966;11.038;2022-09-09T01:09:51;17.20;99.90
30381;DHT22;17169;50.966;11.038;2022-09-09T01:12:56;17.20;99.90
30381;DHT22;17169;50.966;11.038;2022-09-09T01:16:02;17.20;99.90
30381;DHT22;17169;50.966;11.038;2022-09-09T01:19:07;17.20;99.90
30381;DHT22;17169;50.966;11.038;2022-09-09T01:22:18;17.20;99.90
30381;DHT22;17169;50.966;11.038;2022-09-09T01:26:11;17.20;99.90
30381;DHT22;17169;50.966;11.038;2022-09-09T01:29:17;17.10;99.90
30381;DHT22;17169;50.966;11.038;2022-09-09T01:32:40;17.10;99.90
30381;DHT22;17169;50.966;11.038;2022-09-09T01:35:46;17.10;99.90
30381;DHT22;17169;50.966;11.038;2022-09-09T01:38:52;17.00;99.90
30381;DHT22;17169;50.966;11.038;2022-09-09T01:41:56;17.00;99.90
30381;DHT22;17169;50.966;11.038;2022-09-09T01:44:59;17.00;99.90
30381;DHT22;17169;50.966;11.038;2022-09-09T01:48:02;17.10;99.90
30381;DHT22;17169;50.966;11.038;2022-09-09T01:51:05;17.10;99.90
30381;DHT22;17169;50.966;11.038;2022-09-09T01:54:08;17.20;99.90
30381;DHT22;17169;50.966;11.038;2022-09-09T01:57:17;17.20;99.90
30381;DHT22;17169;50.966;11.038;2022-09-09T02:00:22;17.20;99.90
30381;DHT22;17169;50.966;11.038;2022-09-09T02:03:27;17.30;99.90
30381;DHT22;17169;50.966;11.038;2022-09-09T02:06:33;17.30;99.90
30381;DHT22;17169;50.966;11.038;2022-09-09T02:09:38;17.30;99.90
30381;DHT22;17169;50.966;11.038;2022-09-09T02:12:45;17.30;99.90
30381;DHT22;17169;50.966;11.038;2022-09-09T02:15:53;17.30;99.90
30381;DHT22;17169;50.966;11.038;2022-09-09T02:19:02;17.40;99.90
30381;DHT22;17169;50.966;11.038;2022-09-09T02:22:06;17.40;99.90
30381;DHT22;17169;50.966;11.038;2022-09-09T02:25:10;17.40;99.90
30381;DHT22;17169;50.966;11.038;2022-09-09T02:28:15;17.40;99.90
30381;DHT22;17169;50.966;11.038;2022-09-09T02:31:21;17.50;99.90
30381;DHT22;17169;50.966;11.038;2022-09-09T02:34:24;17.50;99.90
30381;DHT22;17169;50.966;11.038;2022-09-09T02:37:31;17.50;99.90
30381;DHT22;17169;50.966;11.038;2022-09-09T02:40:37;17.50;99.90
30381;DHT22;17169;50.966;11.038;2022-09-09T02:43:41;17.50;99.90
30381;DHT22;17169;50.966;11.038;2022-09-09T02:46:58;17.60;99.90
30381;DHT22;17169;50.966;11.038;2022-09-09T02:50:12;17.60;99.90
30381;DHT22;17169;50.966;11.038;2022-09-09T02:53:17;17.60;99.90
30381;DHT22;17169;50.966;11.038;2022-09-09T02:56:24;17.70;99.90
30381;DHT22;17169;50.966;11.038;2022-09-09T02:59:30;17.70;99.90
30381;DHT22;17169;50.966;11.038;2022-09-09T03:02:33;17.60;99.90
30381;DHT22;17169;50.966;11.038;2022-09-09T03:05:36;17.60;99.90
30381;DHT22;17169;50.966;11.038;2022-09-09T03:08:39;17.60;99.90
30381;DHT22;17169;50.966;11.038;2022-09-09T03:11:43;17.60;99.90
30381;DHT22;17169;50.966;11.038;2022-09-09T03:14:46;17.60;99.90
30381;DHT22;17169;50.966;11.038;2022-09-09T03:17:49;17.60;99.90
30381;DHT22;17169;50.966;11.038;2022-09-09T03:20:52;17.60;99.90
30381;DHT22;17169;50.966;11.038;2022-09-09T03:23:55;17.60;99.90
30381;DHT22;17169;50.966;11.038;2022-09-09T03:26:58;17.60;99.90
30381;DHT22;17169;50.966;11.038;2022-09-09T03:30:02;17.60;99.90
30381;DHT22;17169;50.966;11.038;2022-09-09T03:33:04;17.60;99.90
30381;DHT22;17169;50.966;11.038;2022-09-09T03:36:07;17.50;99.90
30381;DHT22;17169;50.966;11.038;2022-09-09T03:39:11;17.50;99.90
30381;DHT22;17169;50.966;11.038;2022-09-09T03:42:14;17.50;99.90
30381;DHT22;17169;50.966;11.038;2022-09-09T03:45:21;17.50;99.90
30381;DHT22;17169;50.966;11.038;2022-09-09T03:48:24;17.50;99.90
30381;DHT22;17169;50.966;11.038;2022-09-09T03:51:26;17.50;99.90
30381;DHT22;17169;50.966;11.038;2022-09-09T03:54:29;17.50;99.90
30381;DHT22;17169;50.966;11.038;2022-09-09T03:57:31;17.50;99.90
30381;DHT22;17169;50.966;11.038;2022-09-09T04:00:37;17.50;99.90
30381;DHT22;17169;50.966;11.038;2022-09-09T04:03:41;17.40;99.90
30381;DHT22;17169;50.966;11.038;2022-09-09T04:06:44;17.50;99.90
30381;DHT22;17169;50.966;11.038;2022-09-09T04:09:46;17.40;99.90
30381;DHT22;17169;50.966;11.038;2022-09-09T04:12:49;17.40;99.90
30381;DHT22;17169;50.966;11.038;2022-09-09T04:15:53;17.40;99.90
30381;DHT22;17169;50.966;11.038;2022-09-09T04:18:55;17.40;99.90
30381;DHT22;17169;50.966;11.038;2022-09-09T04:21:59;17.40;99.90
30381;DHT22;17169;50.966;11.038;2022-09-09T04:25:01;17.40;99.90
30381;DHT22;17169;50.966;11.038;2022-09-09T04:28:03;17.40;99.90
30381;DHT22;17169;50.966;11.038;2022-09-09T04:31:09;17.30;99.90
30381;DHT22;17169;50.966;11.038;2022-09-09T04:34:12;17.30;99.90
30381;DHT22;17169;50.966;11.038;2022-09-09T04:37:14;17.30;99.90
30381;DHT22;17169;50.966;11.038;2022-09-09T04:40:17;17.20;99.90
30381;DHT22;17169;50.966;11.038;2022-09-09T04:43:20;17.10;99.90
30381;DHT22;17169;50.966;11.038;2022-09-09T04:46:24;17.10;99.90
30381;DHT22;17169;50.966;11.038;2022-09-09T04:49:27;17.00;99.90
30381;DHT22;17169;50.966;11.038;2022-09-09T04:52:33;17.00;99.90
30381;DHT22;17169;50.966;11.038;2022-09-09T04:55:36;17.00;99.90
30381;DHT22;17169;50.966;11.038;2022-09-09T04:58:39;17.00;99.90
30381;DHT22;17169;50.966;11.038;2022-09-09T05:01:45;17.00;99.90
30381;DHT22;17169;50.966;11.038;2022-09-09T05:04:47;17.00;99.90
30381;DHT22;17169;50.966;11.038;2022-09-09T05:07:50;17.00;99.90
30381;DHT22;17169;50.966;11.038;2022-09-09T05:10:53;17.10;99.90
30381;DHT22;17169;50.966;11.038;2022-09-09T05:13:56;17.00;99.90
30381;DHT22;17169;50.966;11.038;2022-09-09T05:17:00;17.10;99.90
30381;DHT22;17169;50.966;11.038;2022-09-09T05:20:02;17.10;99.90
30381;DHT22;17169;50.966;11.038;2022-09-09T05:23:05;17.00;99.90
30381;DHT22;17169;50.966;11.038;2022-09-09T05:26:12;17.00;99.90
30381;DHT22;17169;50.966;11.038;2022-09-09T05:29:15;17.00;99.90
30381;DHT22;17169;50.966;11.038;2022-09-09T05:32:20;17.00;99.90
30381;DHT22;17169;50.966;11.038;2022-09-09T05:35:23;17.10;99.90
30381;DHT22;17169;50.966;11.038;2022-09-09T05:38:25;17.10;99.90
30381;DHT22;17169;50.966;11.038;2022-09-09T05:41:28;17.20;99.90
30381;DHT22;17169;50.966;11.038;2022-09-09T05:44:31;17.20;99.90
30381;DHT22;17169;50.966;11.038;2022-09-09T05:47:35;17.20;99.90
30381;DHT22;17169;50.966;11.038;2022-09-09T05:50:38;17.30;99.90
30381;DHT22;17169;50.966;11.038;2022-09-09T05:53:40;17.30;99.90
30381;DHT22;17169;50.966;11.038;2022-09-09T05:56:43;17.30;99.90
30381;DHT22;17169;50.966;11.038;2022-09-09T05:59:46;17.40;99.90
30381;DHT22;17169;50.966;11.038;2022-09-09T06:02:52;17.40;99.90
30381;DHT22;17169;50.966;11.038;2022-09-09T06:05:58;17.40;99.90
30381;DHT22;17169;50.966;11.038;2022-09-09T06:09:00;17.50;99.90
30381;DHT22;17169;50.966;11.038;2022-09-09T06:12:03;17.60;99.90
30381;DHT22;17169;50.966;11.038;2022-09-09T06:15:07;17.60;99.90
30381;DHT22;17169;50.966;11.038;2022-09-09T06:18:11;17.70;99.90
30381;DHT22;17169;50.966;11.038;2022-09-09T06:21:16;17.70;99.90
30381;DHT22;17169;50.966;11.038;2022-09-09T06:24:18;17.80;99.90
30381;DHT22;17169;50.966;11.038;2022-09-09T06:27:21;18.00;99.90
30381;DHT22;17169;50.966;11.038;2022-09-09T06:30:23;18.20;99.90
30381;DHT22;17169;50.966;11.038;2022-09-09T06:33:30;18.20;99.90
30381;DHT22;17169;50.966;11.038;2022-09-09T06:36:34;18.30;99.90
30381;DHT22;17169;50.966;11.038;2022-09-09T06:39:37;18.40;99.90
30381;DHT22;17169;50.966;11.038;2022-09-09T06:42:40;18.50;99.90
30381;DHT22;17169;50.966;11.038;2022-09-09T06:45:42;18.60;99.90
30381;DHT22;17169;50.966;11.038;2022-09-09T06:48:46;18.70;99.90
30381;DHT22;17169;50.966;11.038;2022-09-09T06:51:49;18.70;99.90
30381;DHT22;17169;50.966;11.038;2022-09-09T06:54:53;18.70;99.90
30381;DHT22;17169;50.966;11.038;2022-09-09T06:57:55;18.70;99.90
30381;DHT22;17169;50.966;11.038;2022-09-09T07:01:04;18.70;99.90
30381;DHT22;17169;50.966;11.038;2022-09-09T07:04:08;18.70;99.90
30381;DHT22;17169;50.966;11.038;2022-09-09T07:07:11;18.70;99.90
30381;DHT22;17169;50.966;11.038;2022-09-09T07:10:16;18.60;99.90
30381;DHT22;17169;50.966;11.038;2022-09-09T07:13:18;18.70;99.90
30381;DHT22;17169;50.966;11.038;2022-09-09T07:16:26;18.70;99.90
30381;DHT22;17169;50.966;11.038;2022-09-09T07:19:31;18.80;99.90
30381;DHT22;17169;50.966;11.038;2022-09-09T07:22:35;18.90;99.90
30381;DHT22;17169;50.966;11.038;2022-09-09T07:25:37;19.00;99.90
30381;DHT22;17169;50.966;11.038;2022-09-09T07:28:40;19.10;99.90
30381;DHT22;17169;50.966;11.038;2022-09-09T07:31:43;19.20;99.90
30381;DHT22;17169;50.966;11.038;2022-09-09T07:34:47;19.40;99.90
30381;DHT22;17169;50.966;11.038;2022-09-09T07:37:51;19.50;99.90
30381;DHT22;17169;50.966;11.038;2022-09-09T07:40:53;19.60;99.90
30381;DHT22;17169;50.966;11.038;2022-09-09T07:43:56;19.80;99.90
30381;DHT22;17169;50.966;11.038;2022-09-09T07:46:59;19.80;99.90
30381;DHT22;17169;50.966;11.038;2022-09-09T07:50:03;19.90;99.90
30381;DHT22;17169;50.966;11.038;2022-09-09T07:53:05;20.00;99.90
30381;DHT22;17169;50.966;11.038;2022-09-09T07:56:09;20.10;99.90
30381;DHT22;17169;50.966;11.038;2022-09-09T07:59:12;20.10;99.90
30381;DHT22;17169;50.966;11.038;2022-09-09T08:02:15;20.20;99.70
30381;DHT22;17169;50.966;11.038;2022-09-09T08:05:18;20.30;99.60
30381;DHT22;17169;50.966;11.038;2022-09-09T08:08:21;20.30;99.60
30381;DHT22;17169;50.966;11.038;2022-09-09T08:11:25;20.50;99.20
30381;DHT22;17169;50.966;11.038;2022-09-09T08:14:28;20.50;99.50
30381;DHT22;17169;50.966;11.038;2022-09-09T08:17:31;20.70;99.10
30381;DHT22;17169;50.966;11.038;2022-09-09T08:20:37;20.80;99.10
30381;DHT22;17169;50.966;11.038;2022-09-09T08:23:40;20.90;99.10
30381;DHT22;17169;50.966;11.038;2022-09-09T08:26:45;21.00;98.90
30381;DHT22;17169;50.966;11.038;2022-09-09T08:29:48;21.10;98.80
30381;DHT22;17169;50.966;11.038;2022-09-09T08:32:50;21.20;98.40
30381;DHT22;17169;50.966;11.038;2022-09-09T08:35:54;21.30;98.60
30381;DHT22;17169;50.966;11.038;2022-09-09T08:38:57;21.40;98.20
30381;DHT22;17169;50.966;11.038;2022-09-09T08:42:23;21.60;97.90
30381;DHT22;17169;50.966;11.038;2022-09-09T08:45:34;21.60;97.90
30381;DHT22;17169;50.966;11.038;2022-09-09T08:48:48;21.70;97.60
30381;DHT22;17169;50.966;11.038;2022-09-09T08:51:55;21.70;97.60
30381;DHT22;17169;50.966;11.038;2022-09-09T08:55:05;21.70;97.60
30381;DHT22;17169;50.966;11.038;2022-09-09T08:58:16;21.90;97.30
30381;DHT22;17169;50.966;11.038;2022-09-09T09:01:29;22.10;97.00
30381;DHT22;17169;50.966;11.038;2022-09-09T09:04:58;22.20;96.80
30381;DHT22;17169;50.966;11.038;2022-09-09T09:08:11;22.10;96.70
30381;DHT22;17169;50.966;11.038;2022-09-09T09:11:17;22.20;96.60
30381;DHT22;17169;50.966;11.038;2022-09-09T09:14:22;22.40;96.60
30381;DHT22;17169;50.966;11.038;2022-09-09T09:17:27;22.50;96.40
30381;DHT22;17169;50.966;11.038;2022-09-09T09:20:40;22.60;96.40
30381;DHT22;17169;50.966;11.038;2022-09-09T09:23:49;22.80;96.50
30381;DHT22;17169;50.966;11.038;2022-09-09T09:26:55;23.00;95.50
30381;DHT22;17169;50.966;11.038;2022-09-09T09:30:00;22.90;95.20
30381;DHT22;17169;50.966;11.038;2022-09-09T09:33:08;22.80;95.40
30381;DHT22;17169;50.966;11.038;2022-09-09T09:36:14;22.60;94.90
30381;DHT22;17169;50.966;11.038;2022-09-09T09:39:25;22.60;95.10
30381;DHT22;17169;50.966;11.038;2022-09-09T09:42:27;22.50;95.10
30381;DHT22;17169;50.966;11.038;2022-09-09T09:45:34;22.40;94.90
30381;DHT22;17169;50.966;11.038;2022-09-09T09:48:37;22.50;95.20
30381;DHT22;17169;50.966;11.038;2022-09-09T09:51:40;22.40;95.00
30381;DHT22;17169;50.966;11.038;2022-09-09T09:54:44;22.20;95.30
30381;DHT22;17169;50.966;11.038;2022-09-09T09:57:46;22.00;95.40
30381;DHT22;17169;50.966;11.038;2022-09-09T10:00:50;21.90;95.60
30381;DHT22;17169;50.966;11.038;2022-09-09T10:03:54;21.90;96.00
30381;DHT22;17169;50.966;11.038;2022-09-09T10:06:57;22.00;96.00
30381;DHT22;17169;50.966;11.038;2022-09-09T10:10:00;22.10;96.00
30381;DHT22;17169;50.966;11.038;2022-09-09T10:13:08;22.30;96.00
30381;DHT22;17169;50.966;11.038;2022-09-09T10:16:25;22.50;95.90
30381;DHT22;17169;50.966;11.038;2022-09-09T10:19:32;22.80;95.40
30381;DHT22;17169;50.966;11.038;2022-09-09T10:22:35;22.70;94.60
30381;DHT22;17169;50.966;11.038;2022-09-09T10:25:56;22.80;94.70
30381;DHT22;17169;50.966;11.038;2022-09-09T10:29:22;22.70;94.80
30381;DHT22;17169;50.966;11.038;2022-09-09T10:32:37;22.80;94.30
30381;DHT22;17169;50.966;11.038;2022-09-09T10:35:44;22.90;94.30
30381;DHT22;17169;50.966;11.038;2022-09-09T10:38:52;23.00;94.40
30381;DHT22;17169;50.966;11.038;2022-09-09T10:42:03;23.10;94.20
30381;DHT22;17169;50.966;11.038;2022-09-09T10:45:15;23.10;93.40
30381;DHT22;17169;50.966;11.038;2022-09-09T10:48:28;23.10;93.40
30381;DHT22;17169;50.966;11.038;2022-09-09T10:51:38;23.20;93.70
30381;DHT22;17169;50.966;11.038;2022-09-09T10:54:50;23.50;93.20
30381;DHT22;17169;50.966;11.038;2022-09-09T10:57:58;23.40;93.10
30381;DHT22;17169;50.966;11.038;2022-09-09T11:01:09;23.40;93.20
30381;DHT22;17169;50.966;11.038;2022-09-09T11:04:16;23.50;92.70
30381;DHT22;17169;50.966;11.038;2022-09-09T11:07:26;23.50;92.50
30381;DHT22;17169;50.966;11.038;2022-09-09T11:10:37;23.60;92.90
30381;DHT22;17169;50.966;11.038;2022-09-09T11:13:47;23.60;92.80
30381;DHT22;17169;50.966;11.038;2022-09-09T11:16:55;23.50;92.30
30381;DHT22;17169;50.966;11.038;2022-09-09T11:19:58;23.30;92.30
30381;DHT22;17169;50.966;11.038;2022-09-09T11:23:04;23.20;92.50
30381;DHT22;17169;50.966;11.038;2022-09-09T11:26:14;23.10;92.40
30381;DHT22;17169;50.966;11.038;2022-09-09T11:40:15;22.50;93.30
30381;DHT22;17169;50.966;11.038;2022-09-09T11:43:23;22.40;92.80
30381;DHT22;17169;50.966;11.038;2022-09-09T11:46:35;22.20;92.80
30381;DHT22;17169;50.966;11.038;2022-09-09T11:49:41;22.10;93.00
30381;DHT22;17169;50.966;11.038;2022-09-09T11:52:44;22.10;93.10
30381;DHT22;17169;50.966;11.038;2022-09-09T11:55:47;22.00;93.20
30381;DHT22;17169;50.966;11.038;2022-09-09T11:58:55;21.90;93.00
30381;DHT22;17169;50.966;11.038;2022-09-09T12:02:00;21.70;93.60
30381;DHT22;17169;50.966;11.038;2022-09-09T12:05:06;21.60;94.30
30381;DHT22;17169;50.966;11.038;2022-09-09T12:08:15;21.50;94.50
30381;DHT22;17169;50.966;11.038;2022-09-09T12:11:26;21.40;95.30
30381;DHT22;17169;50.966;11.038;2022-09-09T12:14:36;21.40;95.40
30381;DHT22;17169;50.966;11.038;2022-09-09T12:17:44;21.80;95.00
30381;DHT22;17169;50.966;11.038;2022-09-09T12:20:54;22.20;96.30
30381;DHT22;17169;50.966;11.038;2022-09-09T12:24:01;22.40;94.10
30381;DHT22;17169;50.966;11.038;2022-09-09T12:27:09;22.60;94.30
30381;DHT22;17169;50.966;11.038;2022-09-09T12:30:16;22.90;93.90
30381;DHT22;17169;50.966;11.038;2022-09-09T12:33:20;23.00;92.30
30381;DHT22;17169;50.966;11.038;2022-09-09T12:36:28;23.20;91.80
30381;DHT22;17169;50.966;11.038;2022-09-09T12:39:34;23.40;92.30
30381;DHT22;17169;50.966;11.038;2022-09-09T12:42:40;23.50;91.30
30381;DHT22;17169;50.966;11.038;2022-09-09T12:45:42;23.50;91.70
30381;DHT22;17169;50.966;11.038;2022-09-09T12:48:47;23.30;90.50
30381;DHT22;17169;50.966;11.038;2022-09-09T12:51:50;23.10;90.60
30381;DHT22;17169;50.966;11.038;2022-09-09T12:54:53;23.00;90.70
30381;DHT22;17169;50.966;11.038;2022-09-09T12:57:56;22.90;90.10
30381;DHT22;17169;50.966;11.038;2022-09-09T13:01:01;22.60;90.00
30381;DHT22;17169;50.966;11.038;2022-09-09T13:04:20;22.70;90.50
30381;DHT22;17169;50.966;11.038;2022-09-09T13:07:23;23.20;90.50
30381;DHT22;17169;50.966;11.038;2022-09-09T13:10:28;23.70;89.80
30381;DHT22;17169;50.966;11.038;2022-09-09T13:13:36;24.30;88.40
30381;DHT22;17169;50.966;11.038;2022-09-09T13:16:39;24.50;88.20
30381;DHT22;17169;50.966;11.038;2022-09-09T13:19:45;24.30;87.10
30381;DHT22;17169;50.966;11.038;2022-09-09T13:22:48;24.00;87.70
30381;DHT22;17169;50.966;11.038;2022-09-09T13:25:55;24.00;88.30
30381;DHT22;17169;50.966;11.038;2022-09-09T13:29:17;23.90;87.10
30381;DHT22;17169;50.966;11.038;2022-09-09T13:32:20;24.60;84.60
30381;DHT22;17169;50.966;11.038;2022-09-09T13:35:24;24.90;83.40
30381;DHT22;17169;50.966;11.038;2022-09-09T13:38:29;26.00;81.40
30381;DHT22;17169;50.966;11.038;2022-09-09T13:41:32;26.70;79.80
30381;DHT22;17169;50.966;11.038;2022-09-09T13:44:38;26.30;77.70
30381;DHT22;17169;50.966;11.038;2022-09-09T13:47:42;26.90;77.40
30381;DHT22;17169;50.966;11.038;2022-09-09T13:50:55;27.70;75.80
30381;DHT22;17169;50.966;11.038;2022-09-09T13:53:58;28.70;71.70
30381;DHT22;17169;50.966;11.038;2022-09-09T13:57:01;29.00;68.90
30381;DHT22;17169;50.966;11.038;2022-09-09T14:00:09;28.50;67.20
30381;DHT22;17169;50.966;11.038;2022-09-09T14:03:13;28.50;66.70
30381;DHT22;17169;50.966;11.038;2022-09-09T14:06:17;28.00;67.50
30381;DHT22;17169;50.966;11.038;2022-09-09T14:09:20;27.40;67.90
30381;DHT22;17169;50.966;11.038;2022-09-09T14:12:23;27.00;68.30
30381;DHT22;17169;50.966;11.038;2022-09-09T14:15:25;27.30;69.30
30381;DHT22;17169;50.966;11.038;2022-09-09T14:18:29;27.00;67.50
30381;DHT22;17169;50.966;11.038;2022-09-09T14:21:33;27.40;68.40
30381;DHT22;17169;50.966;11.038;2022-09-09T14:24:35;28.70;66.50
30381;DHT22;17169;50.966;11.038;2022-09-09T14:27:38;28.90;65.20
30381;DHT22;17169;50.966;11.038;2022-09-09T14:30:41;29.20;64.60
30381;DHT22;17169;50.966;11.038;2022-09-09T14:33:45;29.60;64.00
30381;DHT22;17169;50.966;11.038;2022-09-09T14:36:48;30.10;63.60
30381;DHT22;17169;50.966;11.038;2022-09-09T14:39:52;30.70;62.90
30381;DHT22;17169;50.966;11.038;2022-09-09T14:42:55;30.80;61.80
30381;DHT22;17169;50.966;11.038;2022-09-09T14:45:57;31.30;61.80
30381;DHT22;17169;50.966;11.038;2022-09-09T14:48:59;31.80;60.40
30381;DHT22;17169;50.966;11.038;2022-09-09T14:52:04;32.30;59.10
30381;DHT22;17169;50.966;11.038;2022-09-09T14:55:08;32.30;58.20
30381;DHT22;17169;50.966;11.038;2022-09-09T14:58:10;31.90;57.20
30381;DHT22;17169;50.966;11.038;2022-09-09T15:01:16;31.10;57.60
30381;DHT22;17169;50.966;11.038;2022-09-09T15:04:18;31.40;58.50
30381;DHT22;17169;50.966;11.038;2022-09-09T15:07:22;32.10;58.40
30381;DHT22;17169;50.966;11.038;2022-09-09T15:10:25;31.40;57.30
30381;DHT22;17169;50.966;11.038;2022-09-09T15:13:27;30.80;57.70
30381;DHT22;17169;50.966;11.038;2022-09-09T15:16:30;30.50;59.10
30381;DHT22;17169;50.966;11.038;2022-09-09T15:19:33;31.30;60.10
30381;DHT22;17169;50.966;11.038;2022-09-09T15:22:38;31.80;58.60
30381;DHT22;17169;50.966;11.038;2022-09-09T15:25:51;31.60;57.80
30381;DHT22;17169;50.966;11.038;2022-09-09T15:28:54;31.10;58.30
30381;DHT22;17169;50.966;11.038;2022-09-09T15:31:56;30.40;58.80
30381;DHT22;17169;50.966;11.038;2022-09-09T15:34:59;30.50;59.70
30381;DHT22;17169;50.966;11.038;2022-09-09T15:38:03;30.40;58.50
30381;DHT22;17169;50.966;11.038;2022-09-09T15:41:06;29.80;59.30
30381;DHT22;17169;50.966;11.038;2022-09-09T15:44:10;28.90;59.70
30381;DHT22;17169;50.966;11.038;2022-09-09T15:47:13;28.20;61.00
30381;DHT22;17169;50.966;11.038;2022-09-09T15:50:16;27.60;62.00
30381;DHT22;17169;50.966;11.038;2022-09-09T15:53:21;26.90;63.10
30381;DHT22;17169;50.966;11.038;2022-09-09T15:56:23;26.20;64.30
30381;DHT22;17169;50.966;11.038;2022-09-09T15:59:27;25.70;65.50
30381;DHT22;17169;50.966;11.038;2022-09-09T16:02:30;25.40;66.00
30381;DHT22;17169;50.966;11.038;2022-09-09T16:05:33;25.00;66.60
30381;DHT22;17169;50.966;11.038;2022-09-09T16:08:39;24.70;67.50
30381;DHT22;17169;50.966;11.038;2022-09-09T16:11:42;24.30;68.10
30381;DHT22;17169;50.966;11.038;2022-09-09T16:14:44;24.10;68.90
30381;DHT22;17169;50.966;11.038;2022-09-09T16:17:47;23.80;69.60
30381;DHT22;17169;50.966;11.038;2022-09-09T16:20:53;23.70;70.50
30381;DHT22;17169;50.966;11.038;2022-09-09T16:23:59;23.50;71.50
30381;DHT22;17169;50.966;11.038;2022-09-09T16:27:02;23.30;72.10
30381;DHT22;17169;50.966;11.038;2022-09-09T16:30:05;23.10;73.30
30381;DHT22;17169;50.966;11.038;2022-09-09T16:33:08;22.80;73.50
30381;DHT22;17169;50.966;11.038;2022-09-09T16:36:12;22.70;74.10
30381;DHT22;17169;50.966;11.038;2022-09-09T16:39:18;22.60;75.10
30381;DHT22;17169;50.966;11.038;2022-09-09T16:42:21;22.40;75.80
30381;DHT22;17169;50.966;11.038;2022-09-09T16:45:23;22.20;76.10
30381;DHT22;17169;50.966;11.038;2022-09-09T16:48:26;22.10;76.60
30381;DHT22;17169;50.966;11.038;2022-09-09T16:51:30;22.00;76.90
30381;DHT22;17169;50.966;11.038;2022-09-09T16:54:35;21.90;77.60
30381;DHT22;17169;50.966;11.038;2022-09-09T16:57:37;21.80;78.00
30381;DHT22;17169;50.966;11.038;2022-09-09T17:00:39;21.80;78.70
30381;DHT22;17169;50.966;11.038;2022-09-09T17:03:42;21.70;78.50
30381;DHT22;17169;50.966;11.038;2022-09-09T17:06:46;21.70;79.50
30381;DHT22;17169;50.966;11.038;2022-09-09T17:09:51;21.60;79.30
30381;DHT22;17169;50.966;11.038;2022-09-09T17:12:55;21.60;79.70
30381;DHT22;17169;50.966;11.038;2022-09-09T17:15:57;21.50;79.70
30381;DHT22;17169;50.966;11.038;2022-09-09T17:19:00;21.50;79.70
30381;DHT22;17169;50.966;11.038;2022-09-09T17:22:03;21.40;79.80
30381;DHT22;17169;50.966;11.038;2022-09-09T17:25:08;21.30;80.30
30381;DHT22;17169;50.966;11.038;2022-09-09T17:28:11;21.30;80.80
30381;DHT22;17169;50.966;11.038;2022-09-09T17:31:16;21.20;80.90
30381;DHT22;17169;50.966;11.038;2022-09-09T17:34:18;21.00;81.50
30381;DHT22;17169;50.966;11.038;2022-09-09T17:37:21;20.90;82.00
30381;DHT22;17169;50.966;11.038;2022-09-09T17:40:25;20.80;82.20
30381;DHT22;17169;50.966;11.038;2022-09-09T17:43:27;20.80;82.60
30381;DHT22;17169;50.966;11.038;2022-09-09T17:46:31;20.70;83.00
30381;DHT22;17169;50.966;11.038;2022-09-09T17:49:34;20.60;83.40
30381;DHT22;17169;50.966;11.038;2022-09-09T17:52:37;20.50;84.00
30381;DHT22;17169;50.966;11.038;2022-09-09T17:55:41;20.40;84.20
30381;DHT22;17169;50.966;11.038;2022-09-09T17:58:44;20.30;84.80
30381;DHT22;17169;50.966;11.038;2022-09-09T18:01:47;20.30;85.10
30381;DHT22;17169;50.966;11.038;2022-09-09T18:04:51;20.10;85.40
30381;DHT22;17169;50.966;11.038;2022-09-09T18:07:53;20.10;86.10
30381;DHT22;17169;50.966;11.038;2022-09-09T18:10:57;20.00;86.50
30381;DHT22;17169;50.966;11.038;2022-09-09T18:14:02;19.90;87.10
30381;DHT22;17169;50.966;11.038;2022-09-09T18:17:04;19.80;87.30
30381;DHT22;17169;50.966;11.038;2022-09-09T18:20:07;19.80;87.70
30381;DHT22;17169;50.966;11.038;2022-09-09T18:23:11;19.70;88.40
30381;DHT22;17169;50.966;11.038;2022-09-09T18:26:16;19.60;89.10
30381;DHT22;17169;50.966;11.038;2022-09-09T18:29:21;19.50;89.40
30381;DHT22;17169;50.966;11.038;2022-09-09T18:32:25;19.60;89.60
30381;DHT22;17169;50.966;11.038;2022-09-09T18:35:28;19.50;90.00
30381;DHT22;17169;50.966;11.038;2022-09-09T18:38:31;19.50;90.20
30381;DHT22;17169;50.966;11.038;2022-09-09T18:41:37;19.50;90.30
30381;DHT22;17169;50.966;11.038;2022-09-09T18:44:40;19.40;90.50
30381;DHT22;17169;50.966;11.038;2022-09-09T18:47:42;19.30;90.70
30381;DHT22;17169;50.966;11.038;2022-09-09T18:50:45;19.30;90.70
30381;DHT22;17169;50.966;11.038;2022-09-09T18:53:49;19.30;90.90
30381;DHT22;17169;50.966;11.038;2022-09-09T18:56:54;19.20;91.10
30381;DHT22;17169;50.966;11.038;2022-09-09T18:59:56;19.20;91.20
30381;DHT22;17169;50.966;11.038;2022-09-09T19:02:59;19.10;91.70
30381;DHT22;17169;50.966;11.038;2022-09-09T19:06:02;19.00;91.60
30381;DHT22;17169;50.966;11.038;2022-09-09T19:09:05;19.00;91.70
30381;DHT22;17169;50.966;11.038;2022-09-09T19:12:11;18.90;91.90
30381;DHT22;17169;50.966;11.038;2022-09-09T19:15:13;18.90;92.10
30381;DHT22;17169;50.966;11.038;2022-09-09T19:18:16;18.80;92.20
30381;DHT22;17169;50.966;11.038;2022-09-09T19:21:21;18.80;92.40
30381;DHT22;17169;50.966;11.038;2022-09-09T19:24:24;18.80;92.50